Terminal Aerodrome Forecast
Issued by NWS Wichita, KS

Home | Current Version | Previous Version | Text Only | Print | Product List | Glossary On
Versions: 1 2 3 4 5 6 7 8 9 10 11 12 13 14 15
288
FTUS43 KICT 141739
TAFICT
TAF
KICT 141739Z 1418/1518 34012KT P6SM SCT250
     FM142100 33010KT P6SM BKN070
     FM150200 33007KT P6SM SCT025 BKN035
     FM151300 28007KT P6SM SKC
     FM151600 23007KT P6SM SKC=

USA.gov is the U.S. government's official web portal to all federal, state and local government web resources and services.